createdAt,value
2022-09-12T00:01:13.615Z,101076.16
2022-09-12T00:03:40.718Z,101070.00
2022-09-12T00:06:10.032Z,101075.78
2022-09-12T00:08:36.769Z,101078.41
2022-09-12T00:11:08.829Z,101069.72
2022-09-12T00:13:41.290Z,101071.66
2022-09-12T00:16:13.856Z,101077.69
2022-09-12T00:18:40.274Z,101072.63
2022-09-12T00:21:06.645Z,101067.06
2022-09-12T00:23:33.350Z,101064.28
2022-09-12T00:25:59.889Z,101064.06
2022-09-12T00:28:26.370Z,101061.31
2022-09-12T00:30:52.737Z,101047.44
2022-09-12T00:33:19.116Z,101057.06
2022-09-12T00:35:48.322Z,101056.47
2022-09-12T00:38:16.602Z,101059.47
2022-09-12T00:40:43.836Z,101056.47
2022-09-12T00:43:15.532Z,101058.59
2022-09-12T00:45:44.827Z,101060.78
2022-09-12T00:48:22.450Z,101056.78
2022-09-12T00:50:49.810Z,101058.34
2022-09-12T00:53:16.703Z,101053.50
2022-09-12T00:55:48.997Z,101050.16
2022-09-12T00:58:30.360Z,101047.84
2022-09-12T01:00:58.944Z,101047.00
2022-09-12T01:03:26.621Z,101045.94
2022-09-12T01:05:56.761Z,101048.34
2022-09-12T01:08:24.821Z,101045.19
2022-09-12T01:10:51.265Z,101040.09
2022-09-12T01:13:17.859Z,101039.50
2022-09-12T01:15:44.356Z,101038.66
2022-09-12T01:18:22.016Z,101038.06
2022-09-12T01:21:20.200Z,101044.28
2022-09-12T01:24:12.473Z,101038.00
2022-09-12T01:27:05.771Z,101034.59
2022-09-12T01:30:14.793Z,101035.09
2022-09-12T01:32:55.337Z,101031.09
2022-09-12T01:35:29.486Z,101030.03
2022-09-12T01:38:23.264Z,101030.03
2022-09-12T01:41:09.282Z,101028.31
2022-09-12T01:43:51.904Z,101027.06
2022-09-12T01:46:22.914Z,101026.47
2022-09-12T01:49:07.354Z,101023.69
2022-09-12T01:51:44.703Z,101027.53
2022-09-12T01:54:20.761Z,101025.03
2022-09-12T01:56:51.679Z,101022.47
2022-09-12T01:59:45.997Z,101012.94
2022-09-12T02:02:24.440Z,101028.97
2022-09-12T02:04:59.927Z,101020.03
2022-09-12T02:07:35.783Z,101013.88
2022-09-12T02:10:32.531Z,101007.13
2022-09-12T02:13:08.905Z,101015.44
2022-09-12T02:15:43.157Z,101009.91
2022-09-12T02:18:18.338Z,101013.72
2022-09-12T02:20:49.237Z,101009.25
2022-09-12T02:23:29.094Z,101009.03
2022-09-12T02:26:00.426Z,101015.44
2022-09-12T02:28:31.877Z,101013.72
2022-09-12T02:31:24.619Z,101010.38
2022-09-12T02:34:04.581Z,101009.13
2022-09-12T02:36:34.422Z,101013.19
2022-09-12T02:39:01.361Z,101010.69
2022-09-12T02:41:28.099Z,101012.81
2022-09-12T02:43:54.762Z,101003.28
2022-09-12T02:46:31.877Z,101009.28
2022-09-12T02:48:58.514Z,101001.47
2022-09-12T02:51:26.053Z,101008.06
2022-09-12T02:53:53.360Z,100997.00
2022-09-12T02:56:41.617Z,100995.31
2022-09-12T02:59:10.929Z,100991.94
2022-09-12T03:02:05.141Z,100994.47
2022-09-12T03:04:40.315Z,100982.56
2022-09-12T03:07:16.835Z,100993.63
2022-09-12T03:09:49.268Z,100989.53
2022-09-12T03:13:00.835Z,100988.47
2022-09-12T03:15:33.169Z,100993.16
2022-09-12T03:18:23.970Z,100999.53
2022-09-12T03:21:12.157Z,100997.84
2022-09-12T03:24:06.151Z,100996.16
2022-09-12T03:26:46.096Z,100999.63
2022-09-12T03:29:15.023Z,101001.78
2022-09-12T03:31:52.984Z,101000.91
2022-09-12T03:34:20.869Z,101002.25
2022-09-12T03:36:48.069Z,101002.94
2022-09-12T03:39:15.083Z,101005.56
2022-09-12T03:41:41.511Z,101005.78
2022-09-12T03:44:07.943Z,100999.66
2022-09-12T03:46:34.873Z,101000.72
2022-09-12T03:49:01.538Z,100999.00
2022-09-12T03:51:28.788Z,100999.88
2022-09-12T03:53:55.396Z,101014.75
2022-09-12T03:56:21.761Z,101002.25
2022-09-12T03:58:48.113Z,100999.09
2022-09-12T04:01:17.391Z,101002.06
2022-09-12T04:03:45.895Z,100998.72
2022-09-12T04:06:15.143Z,100999.78
2022-09-12T04:08:42.533Z,101004.84
2022-09-12T04:11:14.163Z,101006.94
2022-09-12T04:13:42.263Z,100997.56
2022-09-12T04:16:09.957Z,100992.63
2022-09-12T04:18:36.529Z,100997.31
2022-09-12T04:21:07.604Z,100997.31
2022-09-12T04:23:34.458Z,100995.41
2022-09-12T04:26:03.024Z,100994.53
2022-09-12T04:28:30.457Z,100994.53
2022-09-12T04:31:02.714Z,100987.56
2022-09-12T04:33:29.105Z,100996.13
2022-09-12T04:35:55.459Z,100993.94
2022-09-12T04:38:21.830Z,100987.94
2022-09-12T04:40:48.345Z,100987.47
2022-09-12T04:43:14.796Z,100987.03
2022-09-12T04:45:41.262Z,100987.41
2022-09-12T04:48:07.643Z,100983.56
2022-09-12T04:50:34.034Z,100986.94
2022-09-12T04:53:00.433Z,100987.34
2022-09-12T04:55:27.331Z,100986.00
2022-09-12T04:57:53.725Z,100982.56
2022-09-12T05:00:20.554Z,100979.53
2022-09-12T05:02:47.033Z,100982.94
2022-09-12T05:05:13.402Z,100982.25
2022-09-12T05:07:40.370Z,100982.00
2022-09-12T05:10:07.331Z,100976.25
2022-09-12T05:12:33.879Z,100968.53
2022-09-12T05:15:00.234Z,100972.16
2022-09-12T05:17:29.519Z,100970.84
2022-09-12T05:19:55.922Z,100964.47
2022-09-12T05:22:22.771Z,100957.00
2022-09-12T05:24:54.019Z,100961.44
2022-09-12T05:27:20.394Z,100958.47
2022-09-12T05:29:46.825Z,100968.22
2022-09-12T05:32:13.238Z,100968.22
2022-09-12T05:34:40.420Z,100973.28
2022-09-12T05:37:06.825Z,100975.59
2022-09-12T05:39:33.693Z,100974.50
2022-09-12T05:42:00.038Z,100965.97
2022-09-12T05:44:26.718Z,100969.69
2022-09-12T05:46:53.590Z,100969.00
2022-09-12T05:49:21.357Z,100970.00
2022-09-12T05:51:47.778Z,100974.63
2022-09-12T05:54:19.320Z,100987.50
2022-09-12T05:56:46.130Z,100985.47
2022-09-12T05:59:20.889Z,100985.16
2022-09-12T06:01:48.441Z,100974.22
2022-09-12T06:04:16.023Z,100978.19
2022-09-12T06:06:45.120Z,100977.09
2022-09-12T06:09:13.635Z,100980.59
2022-09-12T06:11:43.476Z,100980.13
2022-09-12T06:14:12.211Z,100990.34
2022-09-12T06:16:39.671Z,100983.75
2022-09-12T06:19:32.552Z,100982.41
2022-09-12T06:21:58.928Z,100979.38
2022-09-12T06:24:25.283Z,100980.97
2022-09-12T06:26:52.809Z,100986.50
2022-09-12T06:29:19.642Z,100992.91
2022-09-12T06:31:46.207Z,101005.91
2022-09-12T06:34:14.678Z,100997.59
2022-09-12T06:36:45.181Z,100994.13
2022-09-12T06:39:14.598Z,100999.88
2022-09-12T06:41:44.071Z,100992.78
2022-09-12T06:44:15.864Z,100990.00
2022-09-12T06:46:42.397Z,100992.78
2022-09-12T06:49:08.782Z,100996.03
2022-09-12T06:51:36.276Z,100995.56
2022-09-12T06:54:03.681Z,100989.47
2022-09-12T06:56:30.205Z,100993.78
2022-09-12T06:58:58.299Z,100978.47
2022-09-12T07:01:25.960Z,100975.22
2022-09-12T07:03:55.043Z,100972.41
2022-09-12T07:06:24.475Z,100992.94
2022-09-12T07:08:51.073Z,100982.44
2022-09-12T07:11:19.149Z,100995.72
2022-09-12T07:13:47.387Z,100983.28
2022-09-12T07:16:19.253Z,100985.94
2022-09-12T07:18:59.851Z,100982.78
2022-09-12T07:21:27.398Z,100993.16
2022-09-12T07:23:57.884Z,100995.97
2022-09-12T07:26:26.576Z,100994.63
2022-09-12T07:28:54.610Z,100994.88
2022-09-12T07:31:23.797Z,100986.41
2022-09-12T07:33:54.628Z,100993.66
2022-09-12T07:36:23.459Z,100985.25
2022-09-12T07:38:57.196Z,100983.66
2022-09-12T07:41:26.663Z,100982.94
2022-09-12T07:43:54.435Z,100989.19
2022-09-12T07:46:22.405Z,100990.50
2022-09-12T07:48:53.038Z,100993.63
2022-09-12T07:51:20.292Z,100988.31
2022-09-12T07:53:47.206Z,100997.91
2022-09-12T07:56:13.718Z,100993.44
2022-09-12T07:58:41.926Z,100998.19
2022-09-12T08:01:19.892Z,100989.94
2022-09-12T08:03:48.588Z,100999.31
2022-09-12T08:06:19.956Z,101006.69
2022-09-12T08:08:47.869Z,100996.53
2022-09-12T08:11:16.308Z,100995.56
2022-09-12T08:13:43.233Z,100991.69
2022-09-12T08:16:15.600Z,100988.91
2022-09-12T08:18:42.195Z,100987.94
2022-09-12T08:21:13.729Z,100986.91
2022-09-12T08:23:40.237Z,100991.50
2022-09-12T08:26:07.098Z,100994.97
2022-09-12T08:28:35.126Z,100991.50
2022-09-12T08:31:02.230Z,100995.91
2022-09-12T08:33:33.090Z,100978.69
2022-09-12T08:36:17.491Z,100975.09
2022-09-12T08:38:46.078Z,100967.75
2022-09-12T08:41:18.363Z,100974.88
2022-09-12T08:44:11.583Z,100964.59
2022-09-12T08:47:05.182Z,100975.41
2022-09-12T08:49:52.874Z,100975.78
2022-09-12T08:52:26.545Z,100972.53
2022-09-12T08:54:53.802Z,100977.81
2022-09-12T08:57:20.650Z,100979.31
2022-09-12T08:59:48.215Z,100979.53
2022-09-12T09:02:45.843Z,100969.69
2022-09-12T09:05:45.804Z,100974.00
2022-09-12T09:08:31.019Z,100965.53
2022-09-12T09:11:33.142Z,100967.94
2022-09-12T09:14:30.393Z,100966.97
2022-09-12T09:16:58.598Z,100957.53
2022-09-12T09:19:30.450Z,100948.13
2022-09-12T09:22:02.037Z,100947.59
2022-09-12T09:24:42.856Z,100936.03
2022-09-12T09:27:40.522Z,100934.44
2022-09-12T09:30:17.442Z,100919.50
2022-09-12T09:32:47.855Z,100924.66
2022-09-12T09:35:33.143Z,100923.66
2022-09-12T09:38:19.531Z,100920.22
2022-09-12T09:40:52.397Z,100920.06
2022-09-12T09:43:24.412Z,100919.13
2022-09-12T09:45:52.653Z,100914.19
2022-09-12T09:48:24.091Z,100908.94
2022-09-12T09:50:50.827Z,100905.03
2022-09-12T09:53:50.175Z,100899.81
2022-09-12T09:56:36.795Z,100895.88
2022-09-12T09:59:15.168Z,100888.34
2022-09-12T10:02:03.953Z,100884.13
2022-09-12T10:04:40.602Z,100876.00
2022-09-12T10:07:18.733Z,100875.91
2022-09-12T10:10:23.337Z,100878.66
2022-09-12T10:12:50.385Z,100880.88
2022-09-12T10:15:22.457Z,100879.13
2022-09-12T10:17:50.885Z,100870.84
2022-09-12T10:20:41.008Z,100868.56
2022-09-12T10:23:41.179Z,100868.69
2022-09-12T10:26:16.270Z,100857.53
2022-09-12T10:28:50.617Z,100856.38
2022-09-12T10:31:29.476Z,100850.16
2022-09-12T10:33:59.606Z,100849.75
2022-09-12T10:36:35.199Z,100851.31
2022-09-12T10:39:02.588Z,100850.00
2022-09-12T10:41:37.897Z,100840.00
2022-09-12T10:44:13.214Z,100840.38
2022-09-12T10:46:40.360Z,100834.63
2022-09-12T10:49:31.179Z,100831.47
2022-09-12T10:52:16.166Z,100838.72
2022-09-12T10:54:43.334Z,100835.38
2022-09-12T10:57:31.065Z,100835.25
2022-09-12T11:00:15.909Z,100828.56
2022-09-12T11:02:57.407Z,100820.56
2022-09-12T11:05:38.795Z,100826.81
2022-09-12T11:08:12.949Z,100817.75
2022-09-12T11:11:04.624Z,100808.22
2022-09-12T11:14:12.921Z,100803.72
2022-09-12T11:17:01.540Z,100800.78
2022-09-12T11:19:56.146Z,100802.78
2022-09-12T11:22:57.641Z,100793.75
2022-09-12T11:25:45.260Z,100788.22
2022-09-12T11:28:17.770Z,100790.72
2022-09-12T11:31:16.454Z,100783.81
2022-09-12T11:33:56.921Z,100778.59
2022-09-12T11:36:51.233Z,100776.69
2022-09-12T11:39:23.834Z,100769.97
2022-09-12T11:41:58.116Z,100770.81
2022-09-12T11:44:28.614Z,100764.50
2022-09-12T11:46:55.003Z,100758.88
2022-09-12T11:49:35.626Z,100762.81
2022-09-12T11:52:14.545Z,100755.94
2022-09-12T11:54:44.688Z,100763.50
2022-09-12T11:57:32.293Z,100757.56
2022-09-12T12:00:04.571Z,100757.25
2022-09-12T12:02:37.115Z,100753.53
2022-09-12T12:05:08.064Z,100736.34
2022-09-12T12:07:45.790Z,100742.94
2022-09-12T12:10:43.085Z,100738.41
2022-09-12T12:13:15.348Z,100720.78
2022-09-12T12:15:48.503Z,100717.50
2022-09-12T12:18:19.554Z,100718.75
2022-09-12T12:20:46.637Z,100719.31
2022-09-12T12:23:31.903Z,100711.00
2022-09-12T12:26:03.729Z,100714.38
2022-09-12T12:28:42.218Z,100711.84
2022-09-12T12:31:10.492Z,100706.41
2022-09-12T12:33:40.012Z,100694.13
2022-09-12T12:36:09.650Z,100693.81
2022-09-12T12:38:40.782Z,100694.44
2022-09-12T12:41:19.167Z,100696.78
2022-09-12T12:43:54.535Z,100685.78
2022-09-12T12:46:23.937Z,100685.97
2022-09-12T12:48:58.439Z,100687.31
2022-09-12T12:51:34.118Z,100669.28
2022-09-12T12:54:02.973Z,100668.97
2022-09-12T12:56:35.025Z,100660.13
2022-09-12T12:59:06.825Z,100664.28
2022-09-12T13:01:40.864Z,100669.88
2022-09-12T13:04:19.999Z,100659.50
2022-09-12T13:06:58.367Z,100650.81
2022-09-12T13:09:34.263Z,100652.59
2022-09-12T13:12:08.560Z,100651.84
2022-09-12T13:14:48.509Z,100643.34
2022-09-12T13:17:25.827Z,100642.53
2022-09-12T13:20:26.058Z,100631.66
2022-09-12T13:22:50.524Z,100624.03
2022-09-12T13:25:36.070Z,100619.53
2022-09-12T13:28:07.408Z,100613.63
2022-09-12T13:30:36.868Z,100608.78
2022-09-12T13:33:11.555Z,100615.88
2022-09-12T13:35:54.805Z,100606.47
2022-09-12T13:38:48.574Z,100607.25
2022-09-12T13:41:35.579Z,100601.34
2022-09-12T13:44:03.677Z,100591.34
2022-09-12T13:46:33.917Z,100601.63
2022-09-12T13:49:06.201Z,100595.94
2022-09-12T13:51:32.784Z,100591.28
2022-09-12T13:54:04.061Z,100594.66
2022-09-12T13:56:30.483Z,100598.75
2022-09-12T13:59:00.237Z,100592.50
2022-09-12T14:01:47.252Z,100579.94
2022-09-12T14:04:39.839Z,100577.41
2022-09-12T14:07:23.392Z,100573.47
2022-09-12T14:09:56.075Z,100565.09
2022-09-12T14:12:30.193Z,100557.41
2022-09-12T14:14:57.251Z,100546.91
2022-09-12T14:17:37.134Z,100545.03
2022-09-12T14:20:16.118Z,100553.34
2022-09-12T14:22:42.636Z,100549.19
2022-09-12T14:25:17.711Z,100560.44
2022-09-12T14:27:50.620Z,100552.38
2022-09-12T14:30:27.171Z,100551.63
2022-09-12T14:33:18.365Z,100552.84
2022-09-12T14:35:47.790Z,100553.66
2022-09-12T14:38:23.630Z,100552.66
2022-09-12T14:41:02.477Z,100558.28
2022-09-12T14:43:31.730Z,100564.34
2022-09-12T14:46:06.404Z,100556.03
2022-09-12T14:48:42.326Z,100555.50
2022-09-12T14:51:22.183Z,100560.38
2022-09-12T14:53:49.875Z,100558.84
2022-09-12T14:56:16.511Z,100548.03
2022-09-12T14:58:43.173Z,100533.03
2022-09-12T15:01:12.615Z,100523.69
2022-09-12T15:03:44.877Z,100518.63
2022-09-12T15:06:22.816Z,100519.25
2022-09-12T15:08:49.345Z,100519.00
2022-09-12T15:11:15.700Z,100521.19
2022-09-12T15:13:42.340Z,100508.13
2022-09-12T15:16:11.471Z,100511.63
2022-09-12T15:18:38.770Z,100512.56
2022-09-12T15:21:10.704Z,100509.97
2022-09-12T15:23:50.883Z,100512.81
2022-09-12T15:26:20.326Z,100511.22
2022-09-12T15:28:46.793Z,100511.03
2022-09-12T15:31:23.473Z,100511.72
2022-09-12T15:33:49.945Z,100509.25
2022-09-12T15:36:19.110Z,100505.69
2022-09-12T15:38:46.687Z,100496.69
2022-09-12T15:41:19.510Z,100508.16
2022-09-12T15:43:46.732Z,100499.91
2022-09-12T15:46:15.225Z,100493.44
2022-09-12T15:48:41.655Z,100494.72
2022-09-12T15:51:15.440Z,100490.09
2022-09-12T15:53:42.951Z,100502.28
2022-09-12T15:56:09.483Z,100506.00
2022-09-12T15:58:36.177Z,100503.59
2022-09-12T16:01:02.651Z,100502.34
2022-09-12T16:03:29.971Z,100508.69
2022-09-12T16:05:59.018Z,100504.56
2022-09-12T16:08:25.641Z,100504.56
2022-09-12T16:10:56.034Z,100501.09
2022-09-12T16:13:24.049Z,100502.25
2022-09-12T16:15:51.078Z,100499.13
2022-09-12T16:18:17.491Z,100499.31
2022-09-12T16:20:43.992Z,100495.22
2022-09-12T16:23:13.506Z,100497.44
2022-09-12T16:25:40.630Z,100482.28
2022-09-12T16:28:07.281Z,100483.31
2022-09-12T16:30:34.611Z,100479.22
2022-09-12T16:33:01.536Z,100477.06
2022-09-12T16:35:27.913Z,100476.63
2022-09-12T16:37:54.367Z,100475.75
2022-09-12T16:40:20.798Z,100472.59
2022-09-12T16:42:47.240Z,100475.53
2022-09-12T16:45:13.901Z,100459.13
2022-09-12T16:47:40.391Z,100458.94
2022-09-12T16:50:07.520Z,100459.25
2022-09-12T16:52:35.046Z,100464.78
2022-09-12T16:55:01.397Z,100458.78
2022-09-12T16:57:27.753Z,100468.75
2022-09-12T16:59:54.112Z,100461.22
2022-09-12T17:02:20.562Z,100456.53
2022-09-12T17:04:46.939Z,100456.53
2022-09-12T17:07:13.300Z,100455.22
2022-09-12T17:09:39.776Z,100445.41
2022-09-12T17:12:06.314Z,100450.56
2022-09-12T17:14:32.753Z,100448.44
2022-09-12T17:16:59.136Z,100446.59
2022-09-12T17:19:29.519Z,100447.56
2022-09-12T17:21:57.564Z,100437.66
2022-09-12T17:24:24.948Z,100448.31
2022-09-12T17:26:51.779Z,100446.88
2022-09-12T17:29:18.242Z,100455.81
2022-09-12T17:31:45.439Z,100460.78
2022-09-12T17:34:16.211Z,100455.94
2022-09-12T17:36:44.463Z,100454.19
2022-09-12T17:39:12.345Z,100451.56
2022-09-12T17:41:39.476Z,100460.97
2022-09-12T17:44:07.281Z,100457.22
2022-09-12T17:46:36.704Z,100457.09
2022-09-12T17:49:06.591Z,100477.31
2022-09-12T17:51:33.027Z,100476.88
2022-09-12T17:54:11.787Z,100471.00
2022-09-12T17:56:39.404Z,100471.91
2022-09-12T17:59:07.450Z,100472.78
2022-09-12T18:01:52.789Z,100480.81
2022-09-12T18:04:20.043Z,100494.47
2022-09-12T18:06:49.184Z,100481.94
2022-09-12T18:09:21.426Z,100482.84
2022-09-12T18:11:48.764Z,100484.25
2022-09-12T18:14:17.215Z,100480.31
2022-09-12T18:16:44.476Z,100484.22
2022-09-12T18:19:11.252Z,100496.22
2022-09-12T18:21:38.221Z,100487.75
2022-09-12T18:24:05.269Z,100489.63
2022-09-12T18:26:32.456Z,100492.41
2022-09-12T18:28:59.040Z,100495.94
2022-09-12T18:31:28.933Z,100490.22
2022-09-12T18:33:57.108Z,100489.53
2022-09-12T18:36:24.138Z,100494.94
2022-09-12T18:38:50.835Z,100488.00
2022-09-12T18:41:20.251Z,100483.88
2022-09-12T18:43:47.210Z,100488.72
2022-09-12T18:46:18.861Z,100493.28
2022-09-12T18:48:46.295Z,100497.88
2022-09-12T18:51:20.988Z,100494.63
2022-09-12T18:53:52.879Z,100485.19
2022-09-12T18:56:19.859Z,100493.97
2022-09-12T18:58:50.839Z,100483.34
2022-09-12T19:01:22.492Z,100484.25
2022-09-12T19:03:49.455Z,100486.00
2022-09-12T19:06:18.441Z,100487.78
2022-09-12T19:08:45.112Z,100487.81
2022-09-12T19:11:11.908Z,100489.59
2022-09-12T19:13:41.243Z,100485.16
2022-09-12T19:16:10.212Z,100488.56
2022-09-12T19:18:38.513Z,100487.22
2022-09-12T19:21:06.479Z,100491.13
2022-09-12T19:23:34.211Z,100490.09
2022-09-12T19:26:03.719Z,100486.47
2022-09-12T19:28:30.973Z,100489.28
2022-09-12T19:30:57.933Z,100496.31
2022-09-12T19:33:24.769Z,100492.13
2022-09-12T19:35:51.647Z,100497.75
2022-09-12T19:38:18.720Z,100491.91
2022-09-12T19:40:45.136Z,100482.72
2022-09-12T19:43:11.965Z,100483.31
2022-09-12T19:45:38.373Z,100483.88
2022-09-12T19:48:04.813Z,100486.69
2022-09-12T19:50:33.300Z,100483.63
2022-09-12T19:52:59.816Z,100484.47
2022-09-12T19:55:26.217Z,100479.47
2022-09-12T19:57:53.870Z,100485.63
2022-09-12T20:00:20.362Z,100487.00
2022-09-12T20:02:50.455Z,100482.56
2022-09-12T20:05:17.017Z,100473.91
2022-09-12T20:07:43.438Z,100480.59
2022-09-12T20:10:09.915Z,100475.59
2022-09-12T20:12:36.381Z,100477.50
2022-09-12T20:15:03.448Z,100480.03
2022-09-12T20:17:29.882Z,100470.56
2022-09-12T20:19:56.247Z,100474.19
2022-09-12T20:22:22.611Z,100465.25
2022-09-12T20:24:49.042Z,100476.69
2022-09-12T20:27:15.495Z,100470.00
2022-09-12T20:29:41.975Z,100473.34
2022-09-12T20:32:08.379Z,100478.09
2022-09-12T20:34:35.874Z,100475.59
2022-09-12T20:37:02.381Z,100485.91
2022-09-12T20:39:28.955Z,100485.06
2022-09-12T20:41:55.413Z,100489.25
2022-09-12T20:44:21.785Z,100478.06
2022-09-12T20:46:48.275Z,100479.75
2022-09-12T20:49:14.677Z,100475.56
2022-09-12T20:51:41.068Z,100464.41
2022-09-12T20:54:07.853Z,100467.22
2022-09-12T20:56:37.415Z,100470.25
2022-09-12T20:59:05.059Z,100464.13
2022-09-12T21:01:32.351Z,100456.59
2022-09-12T21:04:00.528Z,100459.09
2022-09-12T21:06:27.426Z,100469.44
2022-09-12T21:08:58.601Z,100466.38
2022-09-12T21:11:25.402Z,100454.94
2022-09-12T21:13:52.963Z,100460.78
2022-09-12T21:16:21.426Z,100459.94
2022-09-12T21:18:54.021Z,100462.72
2022-09-12T21:21:21.047Z,100470.81
2022-09-12T21:23:47.617Z,100475.00
2022-09-12T21:26:13.970Z,100482.56
2022-09-12T21:28:40.375Z,100492.28
2022-09-12T21:31:07.052Z,100494.53
2022-09-12T21:33:33.477Z,100493.41
2022-09-12T21:36:05.092Z,100490.63
2022-09-12T21:38:32.537Z,100488.38
2022-09-12T21:41:13.669Z,100488.09
2022-09-12T21:43:40.473Z,100481.94
2022-09-12T21:46:08.303Z,100479.41
2022-09-12T21:48:35.464Z,100481.06
2022-09-12T21:51:02.232Z,100471.03
2022-09-12T21:53:28.795Z,100460.69
2022-09-12T21:55:55.241Z,100465.13
2022-09-12T21:58:21.609Z,100467.38
2022-09-12T22:00:48.024Z,100463.16
2022-09-12T22:03:15.355Z,100459.28
2022-09-12T22:05:41.747Z,100461.78
2022-09-12T22:08:08.301Z,100459.00
2022-09-12T22:10:34.735Z,100446.72
2022-09-12T22:13:01.815Z,100451.47
2022-09-12T22:15:43.841Z,100441.16
2022-09-12T22:18:10.729Z,100433.09
2022-09-12T22:20:37.071Z,100438.66
2022-09-12T22:23:24.791Z,100447.28
2022-09-12T22:25:55.629Z,100455.91
2022-09-12T22:28:22.537Z,100459.25
2022-09-12T22:30:48.913Z,100457.00
2022-09-12T22:33:15.323Z,100455.31
2022-09-12T22:35:42.320Z,100454.22
2022-09-12T22:38:09.023Z,100461.47
2022-09-12T22:40:35.445Z,100463.06
2022-09-12T22:43:02.289Z,100468.63
2022-09-12T22:45:28.732Z,100451.88
2022-09-12T22:47:57.165Z,100456.84
2022-09-12T22:50:25.699Z,100460.19
2022-09-12T22:52:52.491Z,100454.56
2022-09-12T22:55:18.858Z,100443.44
2022-09-12T22:57:45.205Z,100448.13
2022-09-12T23:00:12.213Z,100445.56
2022-09-12T23:02:38.573Z,100454.16
2022-09-12T23:05:05.837Z,100469.16
2022-09-12T23:07:33.122Z,100465.53
2022-09-12T23:09:59.498Z,100461.63
2022-09-12T23:12:25.875Z,100454.41
2022-09-12T23:14:52.268Z,100458.88
2022-09-12T23:17:18.655Z,100460.56
2022-09-12T23:19:45.394Z,100461.06
2022-09-12T23:22:11.820Z,100457.16
2022-09-12T23:24:38.339Z,100454.91
2022-09-12T23:27:05.118Z,100449.88
2022-09-12T23:29:34.284Z,100451.53
2022-09-12T23:32:02.219Z,100446.50
2022-09-12T23:34:29.163Z,100455.09
2022-09-12T23:36:56.436Z,100457.09
2022-09-12T23:39:23.363Z,100455.41
2022-09-12T23:41:50.158Z,100465.69
2022-09-12T23:44:16.508Z,100464.84
2022-09-12T23:46:43.020Z,100463.16
2022-09-12T23:49:09.486Z,100461.50
2022-09-12T23:51:35.841Z,100450.63
2022-09-12T23:54:02.586Z,100442.88
2022-09-12T23:56:28.951Z,100433.09
2022-09-12T23:58:55.288Z,100444.22
